Time;durP1;ratioP1;P1;durP2;ratioP2;P2;SDS_P1;SDS_P2;PMS_P1;PMS_P2;Temp;Humidity;BMP_temperature;BMP_pressure;BME280_temperature;BME280_humidity;BME280_pressure;Samples;Min_cycle;Max_cycle;Signal;HPM_P1;HPM_P2
2023/01/15 00:00:14;;;;;;;7.55;1.23;;;7.10;99.90;;;;;;5075307;28;20512;-94
2023/01/15 00:02:40;;;;;;;10.25;1.92;;;7.10;99.90;;;;;;5057700;28;20040;-94
2023/01/15 00:05:06;;;;;;;6.00;1.15;;;7.10;99.90;;;;;;5058139;28;20089;-95
2023/01/15 00:07:31;;;;;;;5.95;1.40;;;7.10;99.90;;;;;;5075368;28;20040;-95
2023/01/15 00:09:57;;;;;;;4.80;0.88;;;7.10;99.90;;;;;;5074338;28;20040;-93
2023/01/15 00:12:23;;;;;;;9.95;1.63;;;7.10;99.90;;;;;;5074900;28;20036;-93
2023/01/15 00:14:49;;;;;;;10.60;1.73;;;7.10;99.90;;;;;;5093175;28;20039;-94
2023/01/15 00:17:14;;;;;;;7.63;1.23;;;7.20;99.90;;;;;;5076289;28;20064;-93
2023/01/15 00:19:40;;;;;;;10.65;1.70;;;7.20;99.90;;;;;;5076475;28;20382;-93
2023/01/15 00:22:06;;;;;;;5.10;1.00;;;7.20;99.90;;;;;;5076009;28;20449;-95
2023/01/15 00:29:59;;;;;;;3.47;1.10;;;7.20;99.90;;;;;;5094872;28;20047;-94
2023/01/15 00:32:28;;;;;;;7.63;1.27;;;7.20;99.90;;;;;;5077063;28;20485;-94
2023/01/15 00:34:54;;;;;;;5.82;1.10;;;7.10;99.90;;;;;;5077816;28;20068;-94
2023/01/15 00:37:20;;;;;;;9.30;1.42;;;7.20;99.90;;;;;;5077599;28;20504;-94
2023/01/15 00:39:46;;;;;;;12.95;1.52;;;7.10;99.90;;;;;;5077775;28;20043;-94
2023/01/15 00:42:11;;;;;;;7.65;1.67;;;7.10;99.90;;;;;;5093876;28;20040;-93
2023/01/15 00:44:37;;;;;;;4.75;1.10;;;7.20;99.90;;;;;;5094420;28;20035;-94
2023/01/15 00:47:03;;;;;;;8.65;1.10;;;7.10;99.90;;;;;;5077533;28;20039;-93
2023/01/15 00:49:28;;;;;;;8.43;1.42;;;7.20;99.90;;;;;;5094262;28;20035;-93
2023/01/15 00:51:54;;;;;;;12.82;1.55;;;7.10;99.90;;;;;;5077654;28;20120;-93
2023/01/15 00:54:20;;;;;;;5.57;0.75;;;7.10;99.90;;;;;;5093698;28;20116;-94
2023/01/15 00:56:46;;;;;;;15.02;1.58;;;7.10;99.90;;;;;;5077305;28;20064;-94
2023/01/15 00:59:11;;;;;;;10.45;1.42;;;7.10;99.90;;;;;;5094376;28;20051;-94
2023/01/15 01:01:37;;;;;;;9.05;1.90;;;7.10;99.90;;;;;;5077452;28;20485;-93
2023/01/15 01:04:03;;;;;;;11.15;1.60;;;7.10;99.90;;;;;;5077006;28;20513;-94
2023/01/15 01:06:29;;;;;;;7.00;1.35;;;7.10;99.90;;;;;;5077515;28;20036;-93
2023/01/15 01:08:55;;;;;;;12.80;2.08;;;7.10;99.90;;;;;;5077346;28;20036;-94
2023/01/15 01:11:25;;;;;;;6.95;1.63;;;7.10;99.90;;;;;;5070846;28;20084;-93
2023/01/15 01:13:52;;;;;;;6.38;1.10;;;7.10;99.90;;;;;;5064145;28;20547;-94
2023/01/15 01:16:36;;;;;;;9.85;1.10;;;7.10;99.90;;;;;;5085126;28;20042;-94
2023/01/15 01:19:08;;;;;;;4.97;0.80;;;7.10;99.90;;;;;;5067965;28;20044;-94
2023/01/15 01:21:37;;;;;;;6.25;1.67;;;7.10;99.90;;;;;;5064860;28;20043;-93
2023/01/15 01:24:03;;;;;;;10.15;1.38;;;7.10;99.90;;;;;;5082260;28;20487;-93
2023/01/15 01:26:29;;;;;;;8.90;1.38;;;7.10;99.90;;;;;;5069890;28;20039;-93
2023/01/15 01:28:55;;;;;;;5.55;1.60;;;7.00;99.90;;;;;;5083994;28;20044;-94
2023/01/15 01:31:21;;;;;;;9.52;1.90;;;7.00;99.90;;;;;;5084812;28;20067;-94
2023/01/15 01:33:52;;;;;;;6.95;0.95;;;7.00;99.90;;;;;;5085061;28;20040;-93
2023/01/15 01:36:18;;;;;;;8.93;1.38;;;7.00;99.90;;;;;;5067796;28;20126;-93
2023/01/15 01:38:48;;;;;;;6.93;1.65;;;7.00;99.90;;;;;;5069918;28;20070;-94
2023/01/15 01:41:15;;;;;;;17.95;1.70;;;7.00;99.90;;;;;;5077756;28;20078;-94
2023/01/15 01:43:54;;;;;;;12.38;1.90;;;6.90;99.90;;;;;;5097680;28;20065;-93
2023/01/15 01:46:20;;;;;;;4.70;1.08;;;7.00;99.90;;;;;;5097765;28;20497;-94
2023/01/15 01:48:49;;;;;;;10.10;1.90;;;7.00;99.90;;;;;;5080994;28;20110;-94
2023/01/15 01:51:15;;;;;;;8.45;1.48;;;7.00;99.90;;;;;;5080422;28;20449;-93
2023/01/15 01:53:41;;;;;;;5.45;1.05;;;7.00;99.90;;;;;;5080132;28;20046;-93
2023/01/15 01:56:10;;;;;;;6.25;1.30;;;7.00;99.90;;;;;;5097432;28;20412;-93
2023/01/15 01:58:36;;;;;;;6.53;1.60;;;7.00;99.90;;;;;;5080764;28;20088;-94
2023/01/15 02:01:02;;;;;;;7.57;1.00;;;7.00;99.90;;;;;;5080379;28;20036;-93
2023/01/15 02:03:34;;;;;;;5.38;1.73;;;7.00;99.90;;;;;;5080229;28;20061;-94
2023/01/15 02:06:01;;;;;;;3.53;0.98;;;7.00;99.90;;;;;;5080630;28;20093;-94
2023/01/15 02:08:27;;;;;;;5.75;1.23;;;7.00;99.90;;;;;;5080274;28;20206;-94
2023/01/15 02:10:55;;;;;;;7.35;1.30;;;7.10;99.90;;;;;;5080504;28;20161;-93
2023/01/15 02:13:25;;;;;;;5.20;1.05;;;7.10;99.90;;;;;;5097019;28;20039;-94
2023/01/15 02:16:01;;;;;;;6.28;1.33;;;7.10;99.90;;;;;;5080614;28;20040;-94
2023/01/15 02:18:44;;;;;;;10.23;1.50;;;7.10;99.90;;;;;;5080224;28;20047;-94
2023/01/15 02:21:23;;;;;;;9.95;1.58;;;7.00;99.90;;;;;;5080198;28;20047;-93
2023/01/15 02:24:10;;;;;;;5.63;2.05;;;7.00;99.90;;;;;;5080074;28;20075;-93
2023/01/15 02:27:05;;;;;;;6.22;1.23;;;7.00;99.90;;;;;;5080358;28;20047;-95
2023/01/15 02:29:43;;;;;;;9.20;1.33;;;7.00;99.90;;;;;;5080359;28;20533;-94
2023/01/15 02:32:15;;;;;;;7.72;1.13;;;7.00;99.90;;;;;;5079519;28;20122;-94
2023/01/15 02:34:47;;;;;;;14.02;1.63;;;6.90;99.90;;;;;;5096921;28;20401;-93
2023/01/15 02:37:19;;;;;;;8.77;1.55;;;6.90;99.90;;;;;;5079848;28;20087;-93
2023/01/15 02:39:46;;;;;;;6.68;1.50;;;6.90;99.90;;;;;;5079755;28;20534;-94
2023/01/15 02:42:15;;;;;;;10.93;1.85;;;6.80;99.90;;;;;;5079361;28;20067;-93
2023/01/15 02:44:46;;;;;;;6.10;1.52;;;6.90;99.90;;;;;;5079910;28;20443;-94
2023/01/15 02:47:12;;;;;;;12.98;1.58;;;6.80;99.90;;;;;;5078834;28;20051;-94
2023/01/15 02:49:41;;;;;;;5.30;1.48;;;6.80;99.90;;;;;;5096115;28;20054;-93
2023/01/15 02:52:13;;;;;;;7.40;1.52;;;6.80;99.90;;;;;;5095843;28;20046;-93
2023/01/15 02:55:02;;;;;;;10.68;1.65;;;6.80;99.90;;;;;;5079477;28;20485;-93
2023/01/15 02:57:33;;;;;;;16.23;2.00;;;6.80;99.90;;;;;;5079629;28;20676;-94
2023/01/15 03:00:02;;;;;;;8.63;1.42;;;6.80;99.90;;;;;;5079205;28;20054;-94
2023/01/15 03:02:33;;;;;;;8.75;1.30;;;6.90;99.90;;;;;;5078859;28;20114;-94
2023/01/15 03:05:01;;;;;;;10.10;1.42;;;6.90;99.90;;;;;;5079412;28;20050;-93
2023/01/15 03:07:34;;;;;;;14.05;2.00;;;6.80;99.90;;;;;;5079205;28;20032;-93
2023/01/15 03:10:00;;;;;;;8.10;1.65;;;6.90;99.90;;;;;;5079385;28;20378;-93
2023/01/15 03:12:33;;;;;;;7.00;1.65;;;6.90;99.90;;;;;;5095605;28;20095;-94
2023/01/15 03:15:09;;;;;;;5.68;1.33;;;6.90;99.90;;;;;;5079016;28;20035;-93
2023/01/15 03:17:47;;;;;;;9.00;1.42;;;6.80;99.90;;;;;;5095992;28;20092;-92
2023/01/15 03:20:19;;;;;;;7.32;1.33;;;6.90;99.90;;;;;;5079206;28;20040;-94
2023/01/15 03:22:50;;;;;;;6.03;1.23;;;6.80;99.90;;;;;;5078383;28;20040;-93
2023/01/15 03:25:25;;;;;;;7.60;1.30;;;6.80;99.90;;;;;;5078899;28;20043;-93
2023/01/15 03:27:55;;;;;;;8.90;1.45;;;6.80;99.90;;;;;;5095738;28;20062;-93
2023/01/15 03:30:21;;;;;;;9.85;1.55;;;6.90;99.90;;;;;;5078755;28;20032;-93
2023/01/15 03:32:47;;;;;;;6.18;2.08;;;6.80;99.90;;;;;;5078296;28;20118;-93
2023/01/15 03:35:41;;;;;;;4.13;1.00;;;6.80;99.90;;;;;;5095539;28;20035;-94
2023/01/15 03:38:06;;;;;;;8.43;2.13;;;6.80;99.90;;;;;;5078815;28;20036;-92
2023/01/15 03:40:36;;;;;;;13.52;2.67;;;6.80;99.90;;;;;;5077677;28;20145;-93
2023/01/15 03:45:55;;;;;;;10.82;2.70;;;6.80;99.90;;;;;;5095519;28;20114;-92
2023/01/15 03:48:34;;;;;;;6.45;1.42;;;6.80;99.90;;;;;;5078736;28;20035;-92
2023/01/15 03:51:22;;;;;;;8.82;1.33;;;6.80;99.90;;;;;;5078443;28;20039;-92
2023/01/15 03:53:57;;;;;;;7.85;1.55;;;6.80;99.90;;;;;;5078051;28;20039;-92
2023/01/15 03:56:35;;;;;;;6.05;1.27;;;6.70;99.90;;;;;;5095369;28;20400;-92
2023/01/15 03:59:10;;;;;;;8.15;1.60;;;6.70;99.90;;;;;;5094951;28;20058;-92
2023/01/15 04:01:40;;;;;;;6.15;1.48;;;6.70;99.90;;;;;;5077668;28;20032;-92
2023/01/15 04:04:06;;;;;;;11.15;1.77;;;6.70;99.90;;;;;;5077851;28;20461;-92
2023/01/15 04:06:36;;;;;;;3.47;0.85;;;6.70;99.90;;;;;;5078186;28;20036;-93
2023/01/15 04:09:07;;;;;;;6.53;1.73;;;6.70;99.90;;;;;;5094751;28;20122;-94
2023/01/15 04:11:33;;;;;;;8.48;1.73;;;6.70;99.90;;;;;;5078052;28;20047;-92
2023/01/15 04:13:58;;;;;;;6.15;1.25;;;6.70;99.90;;;;;;5077771;28;20040;-92
2023/01/15 04:16:29;;;;;;;11.82;1.85;;;6.70;99.90;;;;;;5094747;28;20036;-93
2023/01/15 04:18:55;;;;;;;8.77;1.52;;;6.80;99.90;;;;;;5094570;28;20520;-92
2023/01/15 04:21:21;;;;;;;13.57;2.25;;;6.70;99.90;;;;;;5094624;28;20036;-93
2023/01/15 04:23:47;;;;;;;6.80;1.45;;;6.70;99.90;;;;;;5077394;28;20032;-92
2023/01/15 04:26:13;;;;;;;10.07;1.42;;;6.70;99.90;;;;;;5078139;28;20046;-93
2023/01/15 04:28:39;;;;;;;3.92;1.00;;;6.70;99.90;;;;;;5077553;28;20413;-91
2023/01/15 04:31:05;;;;;;;8.55;2.13;;;6.70;99.90;;;;;;5077714;28;20126;-93
2023/01/15 04:33:31;;;;;;;9.52;1.15;;;6.70;99.90;;;;;;5077143;28;20490;-92
2023/01/15 04:36:01;;;;;;;10.30;2.15;;;6.70;99.90;;;;;;5077395;28;20115;-93
2023/01/15 04:38:27;;;;;;;9.80;1.40;;;6.70;99.90;;;;;;5077780;28;20126;-92
2023/01/15 04:46:23;;;;;;;3.80;1.13;;;6.70;99.90;;;;;;5094442;28;20405;-92
2023/01/15 04:48:49;;;;;;;6.18;1.08;;;6.70;99.90;;;;;;5077348;28;20046;-93
2023/01/15 04:51:15;;;;;;;9.63;1.10;;;6.70;99.90;;;;;;5077271;28;20040;-93
2023/01/15 04:53:40;;;;;;;8.10;1.15;;;6.70;99.90;;;;;;5077100;28;20043;-92
2023/01/15 04:56:06;;;;;;;11.80;1.35;;;6.70;99.90;;;;;;5094081;28;20050;-93
2023/01/15 04:58:33;;;;;;;13.98;1.98;;;6.70;99.90;;;;;;5077468;28;20039;-92
2023/01/15 05:01:02;;;;;;;16.10;2.38;;;6.70;99.90;;;;;;5077457;28;20389;-92
2023/01/15 05:03:28;;;;;;;10.60;1.45;;;6.70;99.90;;;;;;5076757;28;20569;-92
2023/01/15 05:05:54;;;;;;;7.05;1.42;;;6.70;99.90;;;;;;5077266;28;20182;-92
2023/01/15 05:08:20;;;;;;;21.23;1.73;;;6.60;99.90;;;;;;5094113;28;20078;-92
2023/01/15 05:10:45;;;;;;;9.40;1.95;;;6.70;99.90;;;;;;5094524;28;20440;-92
2023/01/15 05:13:11;;;;;;;5.55;1.35;;;6.70;99.90;;;;;;5116067;28;20077;-92
2023/01/15 05:15:39;;;;;;;12.43;2.30;;;6.70;99.90;;;;;;5081222;28;20457;-92
2023/01/15 05:18:05;;;;;;;9.00;1.55;;;6.60;99.90;;;;;;5081238;28;20035;-92
2023/01/15 05:20:34;;;;;;;9.43;1.23;;;6.60;99.90;;;;;;5098244;28;20035;-91
2023/01/15 05:23:00;;;;;;;12.48;1.85;;;6.60;99.90;;;;;;5080676;28;20044;-92
2023/01/15 05:25:25;;;;;;;7.20;1.35;;;6.60;99.90;;;;;;5080910;28;20089;-92
2023/01/15 05:27:51;;;;;;;8.82;2.30;;;6.60;99.90;;;;;;5081118;28;20031;-92
2023/01/15 05:30:17;;;;;;;9.68;1.63;;;6.50;99.90;;;;;;5081080;28;20485;-93
2023/01/15 05:32:42;;;;;;;8.07;1.25;;;6.50;99.90;;;;;;5097602;28;20128;-93
2023/01/15 05:35:08;;;;;;;8.63;1.30;;;6.60;99.90;;;;;;5098271;28;20040;-92
2023/01/15 05:37:34;;;;;;;8.45;1.52;;;6.50;99.90;;;;;;5081248;28;20507;-92
2023/01/15 05:39:59;;;;;;;6.28;1.63;;;6.50;99.90;;;;;;5080742;28;20076;-92
2023/01/15 05:42:25;;;;;;;4.03;1.02;;;6.50;99.90;;;;;;5080284;28;20051;-92
2023/01/15 05:44:51;;;;;;;8.23;1.60;;;6.50;99.90;;;;;;5080698;28;20038;-92
2023/01/15 05:47:17;;;;;;;10.00;1.13;;;6.50;99.90;;;;;;5080839;28;20089;-92
2023/01/15 05:49:42;;;;;;;7.60;1.08;;;6.50;99.90;;;;;;5080641;28;20031;-92
2023/01/15 05:52:08;;;;;;;4.72;1.30;;;6.50;99.90;;;;;;5080552;28;20044;-92
2023/01/15 05:54:35;;;;;;;4.60;1.13;;;6.50;99.90;;;;;;5080515;28;20412;-92
2023/01/15 05:57:01;;;;;;;7.50;1.20;;;6.40;99.90;;;;;;5080297;28;20043;-92
2023/01/15 05:59:28;;;;;;;7.63;1.15;;;6.40;99.90;;;;;;5076472;28;20084;-94
2023/01/15 06:01:54;;;;;;;6.28;1.00;;;6.40;99.90;;;;;;5090888;28;20421;-92
2023/01/15 06:04:20;;;;;;;4.55;1.27;;;6.40;99.90;;;;;;5078732;28;20497;-92
2023/01/15 06:06:47;;;;;;;6.13;0.88;;;6.40;99.90;;;;;;5078720;28;20036;-92
2023/01/15 06:09:13;;;;;;;4.25;0.75;;;6.30;99.90;;;;;;5078473;28;20073;-92
2023/01/15 06:11:40;;;;;;;6.40;0.85;;;6.30;99.90;;;;;;5078295;28;20066;-92
2023/01/15 06:14:07;;;;;;;12.23;1.67;;;6.20;99.90;;;;;;5078654;28;20047;-93
2023/01/15 06:16:32;;;;;;;5.45;1.08;;;6.20;99.90;;;;;;5078279;28;20424;-92
2023/01/15 06:19:03;;;;;;;6.25;1.05;;;6.30;99.90;;;;;;5078485;28;20050;-93
2023/01/15 06:21:30;;;;;;;6.72;1.23;;;6.30;99.90;;;;;;5078597;28;20039;-91
2023/01/15 06:23:55;;;;;;;5.57;1.10;;;6.30;99.90;;;;;;5078696;28;20504;-92
2023/01/15 06:26:21;;;;;;;7.53;1.33;;;6.30;99.90;;;;;;5080235;28;20032;-92
2023/01/15 06:28:47;;;;;;;8.57;1.42;;;6.30;99.90;;;;;;5080050;28;20047;-92
2023/01/15 06:31:16;;;;;;;8.90;1.13;;;6.30;99.90;;;;;;5096687;28;20623;-93
2023/01/15 06:33:42;;;;;;;9.02;1.33;;;6.30;99.90;;;;;;5079491;28;20032;-92
2023/01/15 06:36:13;;;;;;;10.52;2.05;;;6.30;99.90;;;;;;5079735;28;20035;-92
2023/01/15 06:38:39;;;;;;;4.88;1.00;;;6.30;99.90;;;;;;5079952;28;20040;-92
2023/01/15 06:49:20;;;;;;;10.98;2.33;;;6.20;99.90;;;;;;5096318;28;20085;-92
2023/01/15 06:51:45;;;;;;;4.88;1.48;;;6.20;99.90;;;;;;5096318;28;20128;-91
2023/01/15 06:54:11;;;;;;;10.50;1.40;;;6.20;99.90;;;;;;5095862;28;20051;-93
2023/01/15 06:56:36;;;;;;;9.55;1.13;;;6.20;99.90;;;;;;5077179;28;20031;-91
2023/01/15 06:59:02;;;;;;;4.88;1.00;;;6.20;99.90;;;;;;5093884;28;20032;-92
2023/01/15 07:01:29;;;;;;;7.38;1.33;;;6.10;99.90;;;;;;5078675;28;20035;-92
2023/01/15 07:03:55;;;;;;;15.43;2.65;;;6.10;99.90;;;;;;5078393;28;20036;-92
2023/01/15 07:06:21;;;;;;;7.60;1.20;;;6.10;99.90;;;;;;5078839;28;20040;-92
2023/01/15 07:08:47;;;;;;;8.50;1.33;;;6.10;99.90;;;;;;5078872;28;20053;-92
2023/01/15 07:11:13;;;;;;;3.88;1.08;;;6.10;99.90;;;;;;5078627;28;20074;-91
2023/01/15 07:13:39;;;;;;;4.72;0.73;;;6.00;99.90;;;;;;5078058;28;20048;-92
2023/01/15 07:16:04;;;;;;;8.98;1.48;;;6.00;99.90;;;;;;5095308;28;20138;-91
2023/01/15 07:18:32;;;;;;;5.88;1.20;;;5.90;99.90;;;;;;5078653;28;20051;-92
2023/01/15 07:20:58;;;;;;;10.68;2.30;;;5.90;99.90;;;;;;5078631;28;20113;-91
2023/01/15 07:23:25;;;;;;;10.35;1.13;;;5.90;99.90;;;;;;5078260;28;20031;-92
2023/01/15 07:25:54;;;;;;;7.97;1.20;;;5.90;99.90;;;;;;5078322;28;20031;-92
2023/01/15 07:28:21;;;;;;;5.97;1.38;;;5.90;99.90;;;;;;5078008;28;20127;-91
2023/01/15 07:30:46;;;;;;;7.13;1.05;;;5.90;99.90;;;;;;5092011;28;20439;-90
2023/01/15 07:33:12;;;;;;;6.72;1.13;;;5.90;99.90;;;;;;5065739;28;20546;-91
2023/01/15 07:35:38;;;;;;;7.28;1.10;;;5.90;99.90;;;;;;5060439;28;20044;-91
2023/01/15 07:38:03;;;;;;;5.18;1.05;;;5.90;99.90;;;;;;5057897;28;20119;-91
2023/01/15 07:40:29;;;;;;;6.78;0.98;;;5.90;99.90;;;;;;5057714;28;20043;-92
2023/01/15 07:49:44;;;;;;;10.07;1.60;;;5.90;99.90;;;;;;5074559;28;20043;-92
2023/01/15 07:51:13;;;;;;;7.72;1.45;;;5.90;99.90;;;;;;5074204;28;20040;-91
2023/01/15 07:53:39;;;;;;;5.60;1.40;;;5.90;99.90;;;;;;5073730;28;20429;-92
2023/01/15 07:56:05;;;;;;;5.68;1.10;;;5.90;99.90;;;;;;5058318;28;20409;-92
2023/01/15 07:58:31;;;;;;;9.00;1.25;;;5.90;99.90;;;;;;5057812;28;20036;-93
2023/01/15 08:00:56;;;;;;;5.78;1.13;;;5.90;99.90;;;;;;5057666;28;20043;-93
2023/01/15 08:03:22;;;;;;;5.80;0.90;;;5.90;99.90;;;;;;5057752;28;20135;-92
2023/01/15 08:05:47;;;;;;;2.70;0.88;;;5.90;99.90;;;;;;5057352;28;20515;-92
2023/01/15 08:08:14;;;;;;;9.00;1.45;;;5.90;99.90;;;;;;5057352;28;20040;-92
2023/01/15 08:15:11;;;;;;;7.53;1.40;;;5.80;99.90;;;;;;5073765;28;20445;-92
2023/01/15 08:16:10;;;;;;;3.70;0.98;;;5.80;99.90;;;;;;5073686;28;20048;-90
2023/01/15 08:18:36;;;;;;;4.75;1.23;;;5.80;99.90;;;;;;5073941;28;20044;-92
2023/01/15 08:21:02;;;;;;;5.75;0.95;;;5.80;99.90;;;;;;5057137;28;20036;-92
2023/01/15 08:23:27;;;;;;;9.88;1.58;;;5.70;99.90;;;;;;5057150;28;20032;-92
2023/01/15 08:25:53;;;;;;;6.60;1.00;;;5.80;99.90;;;;;;5056951;28;20506;-91
2023/01/15 08:28:18;;;;;;;8.80;1.27;;;5.80;99.90;;;;;;5057444;28;20131;-91
2023/01/15 08:30:44;;;;;;;6.32;1.70;;;5.80;99.90;;;;;;5057039;28;20032;-91
2023/01/15 08:33:10;;;;;;;6.10;0.85;;;5.80;99.90;;;;;;5056565;28;20043;-91
2023/01/15 08:35:35;;;;;;;9.32;2.03;;;5.80;99.90;;;;;;5057151;28;20036;-92
2023/01/15 08:38:06;;;;;;;4.63;0.93;;;5.80;99.90;;;;;;5056939;28;20036;-91
2023/01/15 08:40:35;;;;;;;5.05;0.93;;;5.80;99.90;;;;;;5057049;28;20039;-91
2023/01/15 08:43:00;;;;;;;8.50;1.23;;;5.80;99.90;;;;;;5073201;28;20062;-91
2023/01/15 08:45:26;;;;;;;7.95;1.20;;;5.80;99.90;;;;;;5055335;28;20115;-91
2023/01/15 08:47:57;;;;;;;6.82;1.13;;;5.80;99.90;;;;;;5073261;28;20035;-91
2023/01/15 08:50:22;;;;;;;6.82;1.33;;;5.90;99.90;;;;;;5056890;28;20062;-92
2023/01/15 08:52:48;;;;;;;5.50;0.95;;;5.90;99.90;;;;;;5056677;28;20036;-91
2023/01/15 08:55:14;;;;;;;7.63;1.17;;;6.00;99.90;;;;;;5073632;28;20501;-92
2023/01/15 08:57:39;;;;;;;5.10;0.80;;;6.00;99.90;;;;;;5056906;28;20040;-92
2023/01/15 09:00:06;;;;;;;10.80;1.05;;;6.10;99.90;;;;;;5056621;28;20047;-91
2023/01/15 09:02:31;;;;;;;5.05;1.08;;;6.10;99.90;;;;;;5055960;28;20040;-92
2023/01/15 09:04:57;;;;;;;9.23;2.00;;;6.10;99.90;;;;;;5056929;28;20036;-92
2023/01/15 09:07:23;;;;;;;5.18;0.88;;;6.10;99.90;;;;;;5073552;28;20055;-90
2023/01/15 09:09:48;;;;;;;7.03;1.15;;;6.10;99.90;;;;;;5072866;28;20032;-91
2023/01/15 09:12:14;;;;;;;2.25;0.60;;;5.90;99.90;;;;;;5056511;28;20044;-91
2023/01/15 09:14:39;;;;;;;3.53;0.82;;;5.70;99.90;;;;;;5073227;28;20413;-91
2023/01/15 09:17:05;;;;;;;4.13;1.05;;;5.50;99.90;;;;;;5056849;28;20048;-91
2023/01/15 09:19:31;;;;;;;3.85;0.77;;;5.50;99.90;;;;;;5056685;28;20040;-92
2023/01/15 09:21:56;;;;;;;6.07;0.65;;;5.40;99.90;;;;;;5056628;28;20390;-91
2023/01/15 09:24:22;;;;;;;5.22;1.08;;;5.30;99.90;;;;;;5056581;28;20040;-91
2023/01/15 09:26:47;;;;;;;1.30;0.50;;;5.10;99.90;;;;;;5056787;28;20460;-91
2023/01/15 09:29:13;;;;;;;2.15;0.40;;;4.60;99.90;;;;;;5056510;28;20044;-92
2023/01/15 09:31:39;;;;;;;3.70;0.85;;;4.30;99.90;;;;;;5056685;28;20097;-91
2023/01/15 09:34:07;;;;;;;3.50;0.68;;;4.00;99.90;;;;;;5073607;28;20174;-90
2023/01/15 09:36:34;;;;;;;3.30;0.65;;;3.80;99.90;;;;;;5062402;28;20544;-92
2023/01/15 09:39:02;;;;;;;0.65;0.40;;;3.80;99.90;;;;;;5073407;28;20036;-91
2023/01/15 09:42:09;;;;;;;4.07;0.70;;;3.80;99.90;;;;;;5069207;28;20159;-91
2023/01/15 09:45:05;;;;;;;4.82;1.02;;;3.80;99.90;;;;;;5066204;28;20051;-91
2023/01/15 09:47:46;;;;;;;7.57;1.20;;;3.80;99.90;;;;;;5093829;28;20036;-92
2023/01/15 09:50:33;;;;;;;4.05;1.20;;;3.80;99.90;;;;;;5076451;28;20039;-90
2023/01/15 09:53:17;;;;;;;6.95;1.10;;;4.10;99.90;;;;;;5076147;28;20040;-93
2023/01/15 09:55:48;;;;;;;2.97;1.33;;;4.40;99.90;;;;;;5093637;28;20040;-91
2023/01/15 09:58:17;;;;;;;5.82;1.75;;;4.50;99.90;;;;;;5079859;28;20130;-92
2023/01/15 10:00:46;;;;;;;5.40;0.82;;;4.60;99.90;;;;;;5080480;28;20439;-93
2023/01/15 10:03:31;;;;;;;4.32;0.77;;;4.70;99.90;;;;;;5080517;28;20038;-93
2023/01/15 10:06:14;;;;;;;3.85;0.57;;;4.90;99.90;;;;;;5086819;28;20031;-93
2023/01/15 10:08:45;;;;;;;;;;;5.00;99.90;;;;;;5087553;28;20032;-93
2023/01/15 10:11:13;;;;;;;2.92;0.73;;;4.90;99.90;;;;;;5083989;28;19920;-92
2023/01/15 10:13:46;;;;;;;2.95;0.50;;;4.90;99.90;;;;;;5076801;28;20057;-92
2023/01/15 10:16:23;;;;;;;4.03;0.77;;;4.90;99.90;;;;;;5094981;28;20477;-93
2023/01/15 10:18:49;;;;;;;11.00;1.58;;;5.00;99.90;;;;;;5076527;28;20040;-92
2023/01/15 10:21:36;;;;;;;6.50;1.00;;;5.00;99.90;;;;;;5083700;28;20040;-93
2023/01/15 10:24:21;;;;;;;3.15;0.88;;;5.10;99.90;;;;;;5068958;28;20028;-93
2023/01/15 10:26:54;;;;;;;6.43;1.15;;;5.20;99.90;;;;;;5067576;28;20040;-93
2023/01/15 10:29:44;;;;;;;4.85;1.02;;;5.30;99.90;;;;;;5070344;28;20085;-92
2023/01/15 10:32:13;;;;;;;6.63;0.70;;;5.30;99.90;;;;;;5069570;28;20047;-93
2023/01/15 10:35:02;;;;;;;3.25;1.23;;;5.40;99.90;;;;;;5085440;28;20127;-92
2023/01/15 10:37:48;;;;;;;9.98;1.50;;;5.40;99.90;;;;;;5085512;28;20052;-92
2023/01/15 10:40:22;;;;;;;5.50;1.13;;;5.40;99.90;;;;;;5067742;28;20528;-93
2023/01/15 10:43:22;;;;;;;3.55;0.75;;;5.30;99.90;;;;;;5089684;28;20046;-91
2023/01/15 10:45:55;;;;;;;5.32;1.10;;;5.30;99.90;;;;;;5079337;28;20081;-92
2023/01/15 10:48:30;;;;;;;7.50;1.05;;;5.30;99.90;;;;;;5079140;28;20040;-92
2023/01/15 10:50:59;;;;;;;8.98;1.63;;;5.30;99.90;;;;;;5078941;28;20032;-92
2023/01/15 10:53:46;;;;;;;8.10;0.80;;;5.40;99.90;;;;;;5095328;28;20596;-94
2023/01/15 10:56:30;;;;;;;6.50;0.82;;;5.50;99.90;;;;;;5079156;28;20492;-93
2023/01/15 10:59:23;;;;;;;6.50;1.10;;;5.60;99.90;;;;;;5095448;28;20043;-93
2023/01/15 11:01:52;;;;;;;6.13;0.87;;;5.80;99.90;;;;;;5078642;28;20520;-92
2023/01/15 11:04:18;;;;;;;11.63;1.42;;;5.90;99.90;;;;;;5078540;28;20797;-92
2023/01/15 11:06:44;;;;;;;2.95;0.75;;;6.00;99.90;;;;;;5078647;28;20118;-93
2023/01/15 11:09:23;;;;;;;8.57;3.67;;;6.10;99.90;;;;;;5077782;28;20463;-93
2023/01/15 11:20:24;;;;;;;8.82;2.35;;;6.30;99.90;;;;;;5092777;28;20043;-92
2023/01/15 11:22:49;;;;;;;10.73;1.20;;;6.30;99.90;;;;;;5078094;28;20557;-92
2023/01/15 11:25:26;;;;;;;6.88;1.20;;;6.20;99.90;;;;;;5071686;28;20028;-93
2023/01/15 11:27:52;;;;;;;9.57;2.60;;;6.20;99.90;;;;;;5066674;28;20043;-94
2023/01/15 11:30:33;;;;;;;5.20;0.90;;;5.90;99.90;;;;;;5064988;28;20028;-94
2023/01/15 11:33:04;;;;;;;4.07;0.73;;;5.90;99.90;;;;;;5068879;28;20496;-93
2023/01/15 11:35:31;;;;;;;4.88;0.90;;;6.00;99.90;;;;;;5069085;28;20039;-93
2023/01/15 11:38:04;;;;;;;9.50;1.42;;;6.10;99.90;;;;;;5080793;28;20122;-92
2023/01/15 11:40:30;;;;;;;8.25;0.95;;;6.10;99.90;;;;;;5067496;28;20036;-93
2023/01/15 11:51:30;;;;;;;4.00;0.82;;;6.60;99.90;;;;;;5094405;28;20047;-93
2023/01/15 11:54:04;;;;;;;6.20;1.15;;;6.70;99.90;;;;;;5077331;28;20047;-92
2023/01/15 11:56:32;;;;;;;6.45;1.17;;;6.80;99.90;;;;;;5094618;28;20079;-92
2023/01/15 11:59:02;;;;;;;10.88;1.48;;;7.00;99.90;;;;;;5094474;28;20040;-93
2023/01/15 12:01:35;;;;;;;7.65;1.35;;;7.10;99.90;;;;;;5076503;28;20127;-92
2023/01/15 12:04:05;;;;;;;6.72;1.25;;;7.20;99.90;;;;;;5084169;28;20039;-92
2023/01/15 12:06:34;;;;;;;5.20;1.00;;;7.20;99.90;;;;;;5065674;28;20032;-93
2023/01/15 12:09:21;;;;;;;3.63;0.85;;;7.20;99.90;;;;;;5066728;28;20035;-93
2023/01/15 12:12:09;;;;;;;4.35;1.20;;;7.20;99.90;;;;;;5068416;28;20039;-92
2023/01/15 12:14:40;;;;;;;4.35;1.08;;;7.50;99.90;;;;;;5066817;28;20040;-93
2023/01/15 12:17:16;;;;;;;5.60;1.23;;;7.60;99.90;;;;;;5066165;28;20108;-93
2023/01/15 12:20:06;;;;;;;5.00;1.15;;;7.50;99.90;;;;;;5066901;28;20495;-93
2023/01/15 12:22:40;;;;;;;5.95;1.17;;;7.70;99.90;;;;;;5065620;28;20040;-93
2023/01/15 12:25:28;;;;;;;4.72;1.33;;;7.90;99.90;;;;;;5082342;28;20048;-93
2023/01/15 12:27:59;;;;;;;5.88;1.10;;;8.00;99.90;;;;;;5067252;28;20085;-92
2023/01/15 12:30:34;;;;;;;9.82;2.60;;;7.80;99.90;;;;;;5057145;28;20404;-92
2023/01/15 12:33:11;;;;;;;5.13;1.10;;;7.70;99.90;;;;;;5075251;28;20044;-92
2023/01/15 12:35:41;;;;;;;7.45;1.38;;;7.50;99.90;;;;;;5084890;28;20040;-93
2023/01/15 12:38:27;;;;;;;6.53;1.27;;;7.30;99.90;;;;;;5069056;28;20040;-93
2023/01/15 12:40:59;;;;;;;4.75;0.90;;;7.20;99.90;;;;;;5078072;28;20043;-92
2023/01/15 12:46:27;;;;;;;10.10;1.65;;;7.10;99.90;;;;;;5082200;28;20043;-91
2023/01/15 12:49:05;;;;;;;4.40;0.75;;;7.10;99.90;;;;;;5065894;28;20028;-93
2023/01/15 12:51:48;;;;;;;9.15;1.88;;;7.00;99.90;;;;;;5065085;28;20032;-92
2023/01/15 12:54:22;;;;;;;2.97;0.73;;;6.90;99.90;;;;;;5065805;28;20539;-93
2023/01/15 12:56:54;;;;;;;7.78;1.35;;;6.80;99.90;;;;;;5071051;28;20036;-92
2023/01/15 12:59:47;;;;;;;2.67;0.77;;;6.80;99.90;;;;;;5077395;28;20051;-92
2023/01/15 13:02:38;;;;;;;6.65;0.80;;;6.90;99.90;;;;;;5076651;28;20054;-93
2023/01/15 13:05:18;;;;;;;3.83;0.98;;;7.00;99.90;;;;;;5076704;28;20095;-93
2023/01/15 13:07:50;;;;;;;8.02;1.75;;;6.90;99.90;;;;;;5076709;28;20031;-92
2023/01/15 13:10:24;;;;;;;8.00;1.05;;;6.80;99.90;;;;;;5093428;28;20040;-93
2023/01/15 13:12:52;;;;;;;5.07;0.95;;;6.70;99.90;;;;;;5093367;28;20047;-92
2023/01/15 13:15:24;;;;;;;4.57;0.95;;;6.70;99.90;;;;;;5076507;28;20040;-92
2023/01/15 13:18:05;;;;;;;9.40;2.20;;;6.70;99.90;;;;;;5076713;28;20047;-93
2023/01/15 13:20:39;;;;;;;5.40;1.20;;;6.80;99.90;;;;;;5076590;28;20134;-92
2023/01/15 13:23:27;;;;;;;10.18;1.63;;;7.10;99.90;;;;;;5093381;28;20040;-93
2023/01/15 13:26:19;;;;;;;7.82;1.02;;;7.10;99.90;;;;;;5075669;28;20046;-94
2023/01/15 13:29:02;;;;;;;6.18;1.30;;;7.20;99.90;;;;;;5076689;28;20450;-92
2023/01/15 13:31:44;;;;;;;4.93;1.33;;;7.20;99.90;;;;;;5076434;28;20096;-93
2023/01/15 13:34:20;;;;;;;5.35;2.65;;;7.30;99.90;;;;;;5080332;28;20043;-93
2023/01/15 13:36:49;;;;;;;5.47;1.02;;;7.20;99.90;;;;;;5080051;28;20066;-93
2023/01/15 13:39:22;;;;;;;6.03;1.20;;;7.10;99.90;;;;;;5080350;28;20160;-93
2023/01/15 13:44:45;;;;;;;4.07;0.85;;;7.30;99.90;;;;;;5096901;28;20556;-92
2023/01/15 13:47:24;;;;;;;5.72;1.67;;;7.60;99.90;;;;;;5079968;28;20085;-92
2023/01/15 13:49:58;;;;;;;7.50;1.38;;;8.20;99.90;;;;;;5096558;28;20065;-93
2023/01/15 13:52:31;;;;;;;7.95;1.50;;;8.20;99.90;;;;;;5096579;28;20062;-93
2023/01/15 13:55:00;;;;;;;7.97;1.52;;;8.00;99.90;;;;;;5079708;28;20047;-93
2023/01/15 13:57:39;;;;;;;5.15;1.45;;;7.80;99.90;;;;;;5080069;28;20044;-92
2023/01/15 14:00:07;;;;;;;3.63;0.88;;;8.20;99.90;;;;;;5079732;28;20046;-93
2023/01/15 14:02:37;;;;;;;3.65;1.05;;;8.20;99.90;;;;;;5079223;28;20082;-93
2023/01/15 14:05:21;;;;;;;6.28;1.25;;;8.00;99.90;;;;;;5079980;28;20103;-93